Time;durP1;ratioP1;P1;durP2;ratioP2;P2;SDS_P1;SDS_P2;PMS_P1;PMS_P2;Temp;Humidity;BMP_temperature;BMP_pressure;BME280_temperature;BME280_humidity;BME280_pressure;Samples;Min_cycle;Max_cycle;Signal;HPM_P1;HPM_P2
2023/05/04 00:01:33;;;;;;;2.88;1.70;;;;;;;;;;4996018;28;20547;-50
2023/05/04 00:04:00;;;;;;;4.55;2.08;;;;;;;;;;4997987;28;20054;-47
2023/05/04 00:06:34;;;;;;;1.48;1.38;;;;;;;;;;4995329;28;20057;-52
2023/05/04 00:09:02;;;;;;;3.03;1.52;;;;;;;;;;4999024;28;20439;-50
2023/05/04 00:11:29;;;;;;;2.75;1.83;;;;;;;;;;4998021;28;20501;-47
2023/05/04 00:14:03;;;;;;;2.08;1.83;;;;;;;;;;4997576;28;20081;-50
2023/05/04 00:16:30;;;;;;;2.80;1.73;;;;;;;;;;4991916;28;20049;-55
2023/05/04 00:19:04;;;;;;;2.45;1.83;;;;;;;;;;4996158;28;20100;-47
2023/05/04 00:21:31;;;;;;;2.33;1.60;;;;;;;;;;4995102;28;20056;-49
2023/05/04 00:23:58;;;;;;;4.65;1.88;;;;;;;;;;4997580;28;21539;-52
2023/05/04 00:26:38;;;;;;;1.92;1.58;;;;;;;;;;4998818;28;20510;-52
2023/05/04 00:29:12;;;;;;;3.75;1.48;;;;;;;;;;4996429;28;20082;-63
2023/05/04 00:31:46;;;;;;;2.58;1.73;;;;;;;;;;4997444;28;20060;-67
2023/05/04 00:34:14;;;;;;;2.45;1.60;;;;;;;;;;4998979;28;20668;-67
2023/05/04 00:36:41;;;;;;;1.98;1.73;;;;;;;;;;4996928;28;20081;-68
2023/05/04 00:39:15;;;;;;;3.28;1.50;;;;;;;;;;4994880;28;20057;-67
2023/05/04 00:41:43;;;;;;;2.22;1.52;;;;;;;;;;4994612;28;20061;-67
2023/05/04 00:44:10;;;;;;;2.13;1.45;;;;;;;;;;4995336;28;20498;-67
2023/05/04 00:46:44;;;;;;;3.72;1.63;;;;;;;;;;4996642;28;20421;-58
2023/05/04 00:49:11;;;;;;;2.53;1.45;;;;;;;;;;4995174;28;20054;-56
2023/05/04 00:51:46;;;;;;;2.38;1.55;;;;;;;;;;4994838;28;20425;-60
2023/05/04 00:54:16;;;;;;;3.17;1.50;;;;;;;;;;4999177;28;20065;-58
2023/05/04 00:56:44;;;;;;;14.77;2.30;;;;;;;;;;4995348;28;20054;-46
2023/05/04 00:59:18;;;;;;;3.13;1.55;;;;;;;;;;4995003;28;20387;-53
2023/05/04 01:01:45;;;;;;;2.28;1.33;;;;;;;;;;4995287;28;20089;-52
2023/05/04 01:04:12;;;;;;;4.32;1.70;;;;;;;;;;4994127;28;20078;-49
2023/05/04 01:06:48;;;;;;;2.03;1.38;;;;;;;;;;4997193;28;20050;-54
2023/05/04 01:09:22;;;;;;;3.40;1.67;;;;;;;;;;4998281;28;20083;-47
2023/05/04 01:12:12;;;;;;;2.28;1.63;;;;;;;;;;4994536;28;20141;-49
2023/05/04 01:14:40;;;;;;;9.48;1.58;;;;;;;;;;4995263;28;20424;-48
2023/05/04 01:17:14;;;;;;;5.57;1.70;;;;;;;;;;4994937;28;20057;-46
2023/05/04 01:19:41;;;;;;;5.82;1.52;;;;;;;;;;4995392;28;20064;-45
2023/05/04 01:22:08;;;;;;;2.05;1.50;;;;;;;;;;4996538;28;20054;-47
2023/05/04 01:24:41;;;;;;;2.22;1.45;;;;;;;;;;4996177;28;20054;-45
2023/05/04 01:27:10;;;;;;;2.42;1.27;;;;;;;;;;5014613;28;20052;-52
2023/05/04 01:29:49;;;;;;;2.65;1.50;;;;;;;;;;5017477;28;20064;-63
2023/05/04 01:32:17;;;;;;;3.30;1.77;;;;;;;;;;5019339;28;20049;-63
2023/05/04 01:34:44;;;;;;;1.60;1.20;;;;;;;;;;5016468;28;20064;-63
2023/05/04 01:37:19;;;;;;;2.45;1.55;;;;;;;;;;5018775;28;20541;-63
2023/05/04 01:39:46;;;;;;;;;;;;;;;;;;5020992;28;20104;-63
2023/05/04 01:42:20;;;;;;;2.95;1.50;;;;;;;;;;5020279;28;19921;-63
2023/05/04 01:44:47;;;;;;;2.00;1.23;;;;;;;;;;5016270;28;20538;-57
2023/05/04 01:47:14;;;;;;;4.68;1.73;;;;;;;;;;5012005;28;20045;-58
2023/05/04 01:49:48;;;;;;;4.85;1.55;;;;;;;;;;5009609;28;20049;-57
2023/05/04 01:52:15;;;;;;;1.77;1.38;;;;;;;;;;5004738;28;20523;-56
2023/05/04 01:54:49;;;;;;;4.97;1.40;;;;;;;;;;5014558;28;20192;-57
2023/05/04 01:57:16;;;;;;;3.80;1.80;;;;;;;;;;5004799;28;20776;-66
2023/05/04 01:59:43;;;;;;;3.25;1.80;;;;;;;;;;5014054;28;20050;-67
2023/05/04 02:02:17;;;;;;;5.72;1.70;;;;;;;;;;5005742;28;20053;-68
2023/05/04 02:04:45;;;;;;;1.55;1.25;;;;;;;;;;5015841;28;20045;-67
2023/05/04 02:07:19;;;;;;;5.05;1.70;;;;;;;;;;5007370;28;20049;-67
2023/05/04 02:09:46;;;;;;;1.67;1.48;;;;;;;;;;5013229;28;20057;-68
2023/05/04 02:12:13;;;;;;;2.80;1.13;;;;;;;;;;5016249;28;20045;-53
2023/05/04 02:14:46;;;;;;;6.93;1.50;;;;;;;;;;5014964;28;20057;-55
2023/05/04 02:17:14;;;;;;;4.25;1.40;;;;;;;;;;5013650;28;20057;-53
2023/05/04 02:19:48;;;;;;;3.97;1.33;;;;;;;;;;5012550;28;20066;-51
2023/05/04 02:22:15;;;;;;;2.58;1.60;;;;;;;;;;5002512;28;20069;-54
2023/05/04 02:24:43;;;;;;;2.05;1.48;;;;;;;;;;5013167;28;20527;-67
2023/05/04 02:27:23;;;;;;;3.25;1.23;;;;;;;;;;5015999;28;20417;-63
2023/05/04 02:29:57;;;;;;;2.97;1.48;;;;;;;;;;5016564;28;20057;-62
2023/05/04 02:32:31;;;;;;;5.57;1.65;;;;;;;;;;5014421;28;20049;-63
2023/05/04 02:34:59;;;;;;;3.45;1.50;;;;;;;;;;5019116;28;20057;-62
2023/05/04 02:37:26;;;;;;;2.33;1.50;;;;;;;;;;5010329;28;20073;-63
2023/05/04 02:40:00;;;;;;;2.08;1.33;;;;;;;;;;5014203;28;20057;-63
2023/05/04 02:42:27;;;;;;;2.00;1.45;;;;;;;;;;5017678;28;20109;-53
2023/05/04 02:44:54;;;;;;;2.45;1.48;;;;;;;;;;5009184;28;20191;-53
2023/05/04 02:47:29;;;;;;;7.72;1.75;;;;;;;;;;5017065;28;20053;-50
2023/05/04 02:49:56;;;;;;;3.08;1.80;;;;;;;;;;5010210;28;20084;-52
2023/05/04 02:52:30;;;;;;;2.58;1.63;;;;;;;;;;5018551;28;20105;-46
2023/05/04 02:54:58;;;;;;;2.75;1.50;;;;;;;;;;5017139;28;20064;-63
2023/05/04 02:57:25;;;;;;;3.25;1.48;;;;;;;;;;5002312;28;20145;-62
2023/05/04 02:59:59;;;;;;;2.30;1.42;;;;;;;;;;5010692;28;20595;-63
2023/05/04 03:02:26;;;;;;;5.32;1.85;;;;;;;;;;5018923;28;20049;-62
2023/05/04 03:04:53;;;;;;;2.17;1.50;;;;;;;;;;5014842;28;20061;-63
2023/05/04 03:07:27;;;;;;;4.43;1.83;;;;;;;;;;5014440;28;20564;-63
2023/05/04 03:09:54;;;;;;;;;;;;;;;;;;5017446;28;20059;-48
2023/05/04 03:12:28;;;;;;;4.47;1.75;;;;;;;;;;5021479;28;20382;-49
2023/05/04 03:14:55;;;;;;;6.97;1.70;;;;;;;;;;5021214;28;20068;-48
2023/05/04 03:17:22;;;;;;;2.15;1.70;;;;;;;;;;5016564;28;20057;-49
2023/05/04 03:19:57;;;;;;;2.15;1.50;;;;;;;;;;5019198;28;20123;-60
2023/05/04 03:22:24;;;;;;;7.38;2.63;;;;;;;;;;5019099;28;20064;-62
2023/05/04 03:24:51;;;;;;;2.97;1.70;;;;;;;;;;5019527;28;20061;-62
2023/05/04 03:27:31;;;;;;;2.35;1.50;;;;;;;;;;5009163;28;20061;-63
2023/05/04 03:29:58;;;;;;;1.63;1.40;;;;;;;;;;5016062;28;20075;-62
2023/05/04 03:32:33;;;;;;;2.65;1.40;;;;;;;;;;5013914;28;20136;-63
2023/05/04 03:35:00;;;;;;;3.78;1.63;;;;;;;;;;5017567;28;20084;-62
2023/05/04 03:37:41;;;;;;;4.00;1.80;;;;;;;;;;5016906;28;20069;-47
2023/05/04 03:40:21;;;;;;;3.22;2.25;;;;;;;;;;5011992;28;20085;-48
2023/05/04 03:42:55;;;;;;;2.40;1.75;;;;;;;;;;5011209;28;20064;-49
2023/05/04 03:45:22;;;;;;;4.20;1.90;;;;;;;;;;5016177;28;20064;-51
2023/05/04 03:47:56;;;;;;;3.17;1.70;;;;;;;;;;5016298;28;20504;-46
2023/05/04 03:50:30;;;;;;;4.70;1.70;;;;;;;;;;5016670;28;20054;-47
2023/05/04 03:53:05;;;;;;;4.97;1.60;;;;;;;;;;5015674;28;20054;-45
2023/05/04 03:55:38;;;;;;;4.60;1.63;;;;;;;;;;5007437;28;20088;-45
2023/05/04 03:58:13;;;;;;;3.30;1.75;;;;;;;;;;5008960;28;20394;-46
2023/05/04 04:00:53;;;;;;;3.25;1.70;;;;;;;;;;5015660;28;20045;-46
2023/05/04 04:03:20;;;;;;;1.50;1.40;;;;;;;;;;5019445;28;20053;-45
2023/05/04 04:05:55;;;;;;;2.72;1.70;;;;;;;;;;5019767;28;20049;-45
2023/05/04 04:08:29;;;;;;;6.70;2.08;;;;;;;;;;5016374;28;20506;-52
2023/05/04 04:10:56;;;;;;;;;;;;;;;;;;5011714;28;20176;-50
2023/05/04 04:13:23;;;;;;;2.05;1.25;;;;;;;;;;5019390;28;20003;-52
2023/05/04 04:15:57;;;;;;;6.82;1.80;;;;;;;;;;5017243;28;20056;-52
2023/05/04 04:18:24;;;;;;;1.35;1.25;;;;;;;;;;5012526;28;20054;-51
2023/05/04 04:20:51;;;;;;;2.25;1.40;;;;;;;;;;5016196;28;20061;-50
2023/05/04 04:23:25;;;;;;;3.92;1.50;;;;;;;;;;5006688;28;20501;-55
2023/05/04 04:25:52;;;;;;;1.60;1.40;;;;;;;;;;5003696;28;20061;-53
2023/05/04 04:28:33;;;;;;;2.28;1.52;;;;;;;;;;5012401;28;20062;-50
2023/05/04 04:31:02;;;;;;;1.73;1.40;;;;;;;;;;5019076;28;20053;-52
2023/05/04 04:33:36;;;;;;;4.72;1.20;;;;;;;;;;5013016;28;20057;-52
2023/05/04 04:36:03;;;;;;;3.50;1.40;;;;;;;;;;5011779;28;20046;-51
2023/05/04 04:38:30;;;;;;;4.10;1.40;;;;;;;;;;5014439;28;20050;-63
2023/05/04 04:41:04;;;;;;;5.88;1.50;;;;;;;;;;5012226;28;20053;-63
2023/05/04 04:43:32;;;;;;;2.13;1.45;;;;;;;;;;5013571;28;20526;-62
2023/05/04 04:45:59;;;;;;;3.60;1.40;;;;;;;;;;5016121;28;20045;-63
2023/05/04 04:48:34;;;;;;;2.03;1.40;;;;;;;;;;5011886;28;20045;-62
2023/05/04 04:51:01;;;;;;;2.10;1.23;;;;;;;;;;5010647;28;20071;-63
2023/05/04 04:53:35;;;;;;;5.00;1.40;;;;;;;;;;5013283;28;20055;-63
2023/05/04 04:56:02;;;;;;;3.10;1.55;;;;;;;;;;5013676;28;20057;-63
2023/05/04 04:58:30;;;;;;;2.83;1.30;;;;;;;;;;5013366;28;20619;-62
2023/05/04 05:01:04;;;;;;;4.40;1.40;;;;;;;;;;5004816;28;20053;-63
2023/05/04 05:03:32;;;;;;;1.90;1.00;;;;;;;;;;5011466;28;20800;-66
2023/05/04 05:06:06;;;;;;;2.42;1.15;;;;;;;;;;5017038;28;20052;-65
2023/05/04 05:08:33;;;;;;;5.10;1.50;;;;;;;;;;5016734;28;20509;-65
2023/05/04 05:11:00;;;;;;;2.83;1.30;;;;;;;;;;5015228;28;20457;-65
2023/05/04 05:13:35;;;;;;;2.75;1.33;;;;;;;;;;5008432;28;20136;-65
2023/05/04 05:16:02;;;;;;;1.52;1.33;;;;;;;;;;5014524;28;20053;-65
2023/05/04 05:18:36;;;;;;;3.28;1.50;;;;;;;;;;5018091;28;20053;-65
2023/05/04 05:21:06;;;;;;;4.18;1.30;;;;;;;;;;5019772;28;20509;-65
2023/05/04 05:23:40;;;;;;;6.75;1.90;;;;;;;;;;5018002;28;20057;-50
2023/05/04 05:26:20;;;;;;;4.45;1.40;;;;;;;;;;5013572;28;20488;-52
2023/05/04 05:28:54;;;;;;;2.58;1.73;;;;;;;;;;5000888;28;20497;-48
2023/05/04 05:31:21;;;;;;;5.47;1.70;;;;;;;;;;5001042;28;20052;-56
2023/05/04 05:33:48;;;;;;;6.55;2.00;;;;;;;;;;5000184;28;20052;-53
2023/05/04 05:36:22;;;;;;;1.90;1.52;;;;;;;;;;4998130;28;20579;-49
2023/05/04 05:38:49;;;;;;;3.00;1.65;;;;;;;;;;5000523;28;20060;-49
2023/05/04 05:41:23;;;;;;;3.83;1.60;;;;;;;;;;5000356;28;20046;-45
2023/05/04 05:43:50;;;;;;;4.32;1.52;;;;;;;;;;5000011;28;20309;-45
2023/05/04 05:46:17;;;;;;;3.33;1.63;;;;;;;;;;5001056;28;20138;-48
2023/05/04 05:48:51;;;;;;;3.00;1.55;;;;;;;;;;4998781;28;20058;-45
2023/05/04 05:51:18;;;;;;;;;;;;;;;;;;4997491;28;20054;-59
2023/05/04 05:53:52;;;;;;;4.13;1.23;;;;;;;;;;5001528;28;19921;-59
2023/05/04 05:56:19;;;;;;;2.90;1.50;;;;;;;;;;4996851;28;20053;-56
2023/05/04 05:58:46;;;;;;;4.35;1.83;;;;;;;;;;4995433;28;20090;-57
2023/05/04 06:01:20;;;;;;;3.40;1.60;;;;;;;;;;4998106;28;20900;-56
2023/05/04 06:03:47;;;;;;;2.20;1.38;;;;;;;;;;4996351;28;20141;-62
2023/05/04 06:06:21;;;;;;;4.35;1.50;;;;;;;;;;4998876;28;20513;-62
2023/05/04 06:08:48;;;;;;;1.88;1.50;;;;;;;;;;5001194;28;20536;-61
2023/05/04 06:11:16;;;;;;;3.42;1.55;;;;;;;;;;4999667;28;20078;-62
2023/05/04 06:13:50;;;;;;;3.78;1.80;;;;;;;;;;4998199;28;20061;-62
2023/05/04 06:16:17;;;;;;;4.30;1.67;;;;;;;;;;4998873;28;20061;-62
2023/05/04 06:18:44;;;;;;;2.50;1.67;;;;;;;;;;4998285;28;20058;-52
2023/05/04 06:21:18;;;;;;;3.70;1.40;;;;;;;;;;5001205;28;20058;-58
2023/05/04 06:23:46;;;;;;;3.80;1.70;;;;;;;;;;4998996;28;20471;-54
2023/05/04 06:26:32;;;;;;;2.78;1.60;;;;;;;;;;5003742;28;20056;-50
2023/05/04 06:29:06;;;;;;;2.55;1.58;;;;;;;;;;5012338;28;20137;-61
2023/05/04 06:31:41;;;;;;;3.00;1.73;;;;;;;;;;5012825;28;20506;-49
2023/05/04 06:34:08;;;;;;;2.75;1.77;;;;;;;;;;5011608;28;20057;-48
2023/05/04 06:36:36;;;;;;;4.05;1.50;;;;;;;;;;5008495;28;20089;-47
2023/05/04 06:39:11;;;;;;;3.08;1.52;;;;;;;;;;5010087;28;20057;-46
2023/05/04 06:41:38;;;;;;;2.58;1.38;;;;;;;;;;5007137;28;20140;-48
2023/05/04 06:44:06;;;;;;;2.20;1.42;;;;;;;;;;5009784;28;20061;-47
2023/05/04 06:46:40;;;;;;;1.88;1.35;;;;;;;;;;5008926;28;20060;-46
2023/05/04 06:49:07;;;;;;;2.88;1.40;;;;;;;;;;5010189;28;20045;-47
2023/05/04 06:51:36;;;;;;;4.45;1.30;;;;;;;;;;5011255;28;20057;-52
2023/05/04 06:54:10;;;;;;;6.75;1.58;;;;;;;;;;5017629;28;20041;-46
2023/05/04 06:56:38;;;;;;;2.90;1.27;;;;;;;;;;5018443;28;20075;-54
2023/05/04 06:59:12;;;;;;;2.25;1.20;;;;;;;;;;5018375;28;20136;-61
2023/05/04 07:01:39;;;;;;;4.55;1.55;;;;;;;;;;5012876;28;20085;-50
2023/05/04 07:04:15;;;;;;;2.97;1.40;;;;;;;;;;5012841;28;20047;-51
2023/05/04 07:06:42;;;;;;;2.90;1.58;;;;;;;;;;5013862;28;20064;-51
2023/05/04 07:09:09;;;;;;;;;;;;;;;;;;5011167;28;20080;-49
2023/05/04 07:11:44;;;;;;;2.22;1.38;;;;;;;;;;5019618;28;19925;-48
2023/05/04 07:14:11;;;;;;;3.95;1.38;;;;;;;;;;5010446;28;20076;-49
2023/05/04 07:16:45;;;;;;;5.10;1.52;;;;;;;;;;5017720;28;20133;-51
2023/05/04 07:19:12;;;;;;;4.90;1.60;;;;;;;;;;5020065;28;20144;-52
2023/05/04 07:21:40;;;;;;;1.90;1.40;;;;;;;;;;5011159;28;20045;-55
2023/05/04 07:24:14;;;;;;;3.58;1.60;;;;;;;;;;5011411;28;20148;-54
2023/05/04 07:26:47;;;;;;;2.78;1.48;;;;;;;;;;5009715;28;20116;-61
2023/05/04 07:29:21;;;;;;;4.00;1.25;;;;;;;;;;4995278;28;20561;-61
2023/05/04 07:31:48;;;;;;;4.80;1.42;;;;;;;;;;4996669;28;20165;-61
2023/05/04 07:34:22;;;;;;;6.72;1.50;;;;;;;;;;5000994;28;20055;-61
2023/05/04 07:37:08;;;;;;;2.17;0.93;;;;;;;;;;4997474;28;20058;-61
2023/05/04 07:39:42;;;;;;;2.10;1.33;;;;;;;;;;4997752;28;20060;-62
2023/05/04 07:42:10;;;;;;;1.92;1.40;;;;;;;;;;4999117;28;20056;-61
2023/05/04 07:44:37;;;;;;;4.55;1.67;;;;;;;;;;4998794;28;20717;-54
2023/05/04 07:47:11;;;;;;;2.00;1.00;;;;;;;;;;4998569;28;20694;-59
2023/05/04 07:49:38;;;;;;;1.70;1.30;;;;;;;;;;5001775;28;20064;-53
2023/05/04 07:52:06;;;;;;;3.63;1.85;;;;;;;;;;4997626;28;20141;-53
2023/05/04 07:54:40;;;;;;;3.45;1.30;;;;;;;;;;4994880;28;20054;-62
2023/05/04 07:57:08;;;;;;;3.25;1.20;;;;;;;;;;4995425;28;20073;-55
2023/05/04 07:59:35;;;;;;;1.92;1.30;;;;;;;;;;4997941;28;20572;-58
2023/05/04 08:02:17;;;;;;;1.65;0.98;;;;;;;;;;4999814;28;20050;-58
2023/05/04 08:04:44;;;;;;;;;;;;;;;;;;4998691;28;20145;-57
2023/05/04 08:07:19;;;;;;;2.03;1.15;;;;;;;;;;4994664;28;19939;-58
2023/05/04 08:09:51;;;;;;;4.20;1.30;;;;;;;;;;4997136;28;20057;-55
2023/05/04 08:12:25;;;;;;;6.50;1.42;;;;;;;;;;4985883;28;20456;-51
2023/05/04 08:14:53;;;;;;;10.80;1.70;;;;;;;;;;4996713;28;20120;-49
2023/05/04 08:17:20;;;;;;;0.98;0.77;;;;;;;;;;4995701;28;20417;-53
2023/05/04 08:19:54;;;;;;;0.75;0.70;;;;;;;;;;4997806;28;20050;-53
2023/05/04 08:22:21;;;;;;;2.08;1.42;;;;;;;;;;5000070;28;20085;-62
2023/05/04 08:24:55;;;;;;;2.40;1.50;;;;;;;;;;4995250;28;20141;-52
2023/05/04 08:27:29;;;;;;;4.47;1.23;;;;;;;;;;5008701;28;20141;-54
2023/05/04 08:30:11;;;;;;;3.15;1.40;;;;;;;;;;5011397;28;20156;-52
2023/05/04 08:32:38;;;;;;;2.22;1.50;;;;;;;;;;5015469;28;20481;-56
2023/05/04 08:35:13;;;;;;;2.33;1.60;;;;;;;;;;5016786;28;20064;-54
2023/05/04 08:37:40;;;;;;;3.92;1.20;;;;;;;;;;5016984;28;20462;-57
2023/05/04 08:40:07;;;;;;;4.43;1.45;;;;;;;;;;5016165;28;20096;-56
2023/05/04 08:43:03;;;;;;;2.05;1.67;;;;;;;;;;5017764;28;20080;-62
2023/05/04 08:45:30;;;;;;;;;;;;;;;;;;5017632;28;20704;-62
2023/05/04 08:48:04;;;;;;;3.45;1.15;;;;;;;;;;5017176;28;19972;-62
2023/05/04 08:50:31;;;;;;;;;;;;;;;;;;5015455;28;20049;-49
2023/05/04 08:52:59;;;;;;;1.55;1.00;;;;;;;;;;5010901;28;20471;-62
2023/05/04 08:55:36;;;;;;;3.13;1.50;;;;;;;;;;5019138;28;20061;-59
2023/05/04 08:58:05;;;;;;;2.05;1.25;;;;;;;;;;5018616;28;20155;-55
2023/05/04 09:00:39;;;;;;;3.75;1.50;;;;;;;;;;5015871;28;20637;-59
2023/05/04 09:03:13;;;;;;;7.38;1.58;;;;;;;;;;5002666;28;20321;-58
2023/05/04 09:05:49;;;;;;;3.38;1.05;;;;;;;;;;5018458;28;20049;-59
2023/05/04 09:08:23;;;;;;;5.15;1.33;;;;;;;;;;5015696;28;20072;-58
2023/05/04 09:10:50;;;;;;;3.38;1.40;;;;;;;;;;5019883;28;20543;-62
2023/05/04 09:13:17;;;;;;;2.55;1.42;;;;;;;;;;5016358;28;20071;-62
2023/05/04 09:15:54;;;;;;;2.17;1.30;;;;;;;;;;5017554;28;20068;-62
2023/05/04 09:18:37;;;;;;;2.05;1.10;;;;;;;;;;5015828;28;20050;-62
2023/05/04 09:21:11;;;;;;;2.47;0.93;;;;;;;;;;5016114;28;20041;-51
2023/05/04 09:23:46;;;;;;;4.05;1.25;;;;;;;;;;5016129;28;20529;-56
2023/05/04 09:26:36;;;;;;;2.20;1.02;;;;;;;;;;5014261;28;20141;-58
2023/05/04 09:29:10;;;;;;;2.55;0.95;;;;;;;;;;5013640;28;20050;-58
2023/05/04 09:31:48;;;;;;;1.90;1.13;;;;;;;;;;5014587;28;20420;-57
2023/05/04 09:34:15;;;;;;;2.75;1.27;;;;;;;;;;5015977;28;20053;-57
2023/05/04 09:36:43;;;;;;;1.40;0.90;;;;;;;;;;5019278;28;20596;-57
2023/05/04 09:39:17;;;;;;;3.00;1.30;;;;;;;;;;5015956;28;20060;-56
2023/05/04 09:41:44;;;;;;;3.58;1.23;;;;;;;;;;5016940;28;20416;-58
2023/05/04 09:44:20;;;;;;;2.25;1.10;;;;;;;;;;5015091;28;20176;-59
2023/05/04 09:46:54;;;;;;;1.90;1.08;;;;;;;;;;5016513;28;20059;-58
2023/05/04 09:49:31;;;;;;;1.98;0.88;;;;;;;;;;5015927;28;20136;-56
2023/05/04 09:52:02;;;;;;;3.08;1.50;;;;;;;;;;5017185;28;20488;-52
2023/05/04 09:54:40;;;;;;;1.95;1.27;;;;;;;;;;5000975;28;20111;-53
2023/05/04 09:57:14;;;;;;;2.35;1.10;;;;;;;;;;5021452;28;20560;-53
2023/05/04 09:59:48;;;;;;;2.17;1.15;;;;;;;;;;5019876;28;20432;-51
2023/05/04 10:02:16;;;;;;;2.25;1.48;;;;;;;;;;5016611;28;20045;-53
2023/05/04 10:04:53;;;;;;;2.92;1.45;;;;;;;;;;5017266;28;20058;-52
2023/05/04 10:07:30;;;;;;;2.65;1.30;;;;;;;;;;5018652;28;20053;-47
2023/05/04 10:10:00;;;;;;;5.30;1.45;;;;;;;;;;5020446;28;20053;-47
2023/05/04 10:12:35;;;;;;;4.75;1.67;;;;;;;;;;5019915;28;20140;-49
2023/05/04 10:15:06;;;;;;;2.25;1.23;;;;;;;;;;5020116;28;20053;-47
2023/05/04 10:17:50;;;;;;;1.85;1.20;;;;;;;;;;5019497;28;20081;-61
2023/05/04 10:20:30;;;;;;;1.65;1.20;;;;;;;;;;5018569;28;20058;-49
2023/05/04 10:23:27;;;;;;;4.88;1.42;;;;;;;;;;5020325;28;20054;-47
2023/05/04 10:26:13;;;;;;;2.13;1.17;;;;;;;;;;5017383;28;20058;-46
2023/05/04 10:29:01;;;;;;;8.60;1.30;;;;;;;;;;5019353;28;20136;-50
2023/05/04 10:31:38;;;;;;;1.90;1.23;;;;;;;;;;5018847;28;20057;-51
2023/05/04 10:34:22;;;;;;;5.63;1.40;;;;;;;;;;5019542;28;20054;-59
2023/05/04 10:36:49;;;;;;;2.58;0.93;;;;;;;;;;5017603;28;20184;-54
2023/05/04 10:39:28;;;;;;;3.38;1.23;;;;;;;;;;5019463;28;20140;-59
2023/05/04 10:42:05;;;;;;;3.70;1.30;;;;;;;;;;5020298;28;20049;-56
2023/05/04 10:44:53;;;;;;;1.23;1.08;;;;;;;;;;5017767;28;20049;-52
2023/05/04 10:47:31;;;;;;;2.10;1.10;;;;;;;;;;5020522;28;20095;-62
2023/05/04 10:50:06;;;;;;;2.63;1.50;;;;;;;;;;5021138;28;20054;-49
2023/05/04 10:52:50;;;;;;;1.88;0.95;;;;;;;;;;5018834;28;20080;-49
2023/05/04 10:55:26;;;;;;;1.15;0.77;;;;;;;;;;5017954;28;20088;-46
2023/05/04 10:57:54;;;;;;;1.10;1.00;;;;;;;;;;5015921;28;20057;-47
2023/05/04 11:00:22;;;;;;;2.72;1.30;;;;;;;;;;5017183;28;20627;-48
2023/05/04 11:03:02;;;;;;;5.55;1.17;;;;;;;;;;5017372;28;20050;-59
2023/05/04 11:05:39;;;;;;;1.25;0.90;;;;;;;;;;5000985;28;20496;-57
2023/05/04 11:08:15;;;;;;;2.58;1.10;;;;;;;;;;5018079;28;20413;-57
2023/05/04 11:10:43;;;;;;;1.52;1.13;;;;;;;;;;5019152;28;20061;-57
2023/05/04 11:13:11;;;;;;;1.95;1.05;;;;;;;;;;5017790;28;20050;-56
2023/05/04 11:15:46;;;;;;;3.03;1.10;;;;;;;;;;5020219;28;20056;-49
2023/05/04 11:18:14;;;;;;;2.10;1.00;;;;;;;;;;5020961;28;20071;-57
2023/05/04 11:20:48;;;;;;;2.75;1.15;;;;;;;;;;5021779;28;20064;-54
2023/05/04 11:23:15;;;;;;;1.27;0.98;;;;;;;;;;5019215;28;20060;-55
2023/05/04 11:25:49;;;;;;;2.67;1.10;;;;;;;;;;5021679;28;20383;-59
2023/05/04 11:28:34;;;;;;;2.72;1.35;;;;;;;;;;5020772;28;20077;-58
2023/05/04 11:31:14;;;;;;;2.05;1.20;;;;;;;;;;5019297;28;20096;-58
2023/05/04 11:33:53;;;;;;;5.38;1.40;;;;;;;;;;5018113;28;20053;-56
2023/05/04 11:36:27;;;;;;;3.42;1.05;;;;;;;;;;5018348;28;20053;-59
2023/05/04 11:38:54;;;;;;;;;;;;;;;;;;5017517;28;20085;-57
2023/05/04 11:41:28;;;;;;;2.83;1.13;;;;;;;;;;5015379;28;19921;-57
2023/05/04 11:43:55;;;;;;;;;;;;;;;;;;5021400;28;20066;-55
2023/05/04 11:46:23;;;;;;;1.60;1.02;;;;;;;;;;5015988;28;20024;-54
2023/05/04 11:48:58;;;;;;;1.52;0.80;;;;;;;;;;5009715;28;20057;-51
2023/05/04 11:51:28;;;;;;;1.23;0.93;;;;;;;;;;5014525;28;20053;-53
2023/05/04 11:54:02;;;;;;;2.45;1.23;;;;;;;;;;5017446;28;20045;-55
2023/05/04 11:56:29;;;;;;;0.80;0.80;;;;;;;;;;5018062;28;20107;-53
2023/05/04 11:59:06;;;;;;;1.13;0.80;;;;;;;;;;5019444;28;20136;-54
2023/05/04 12:01:41;;;;;;;1.70;1.00;;;;;;;;;;5019493;28;20063;-62
2023/05/04 12:04:08;;;;;;;1.23;1.13;;;;;;;;;;5014937;28;20091;-63
2023/05/04 12:06:42;;;;;;;1.65;1.00;;;;;;;;;;5017087;28;20100;-61
2023/05/04 12:09:09;;;;;;;1.90;1.08;;;;;;;;;;5009269;28;20057;-62
2023/05/04 12:11:37;;;;;;;2.33;1.10;;;;;;;;;;5019177;28;20144;-56
2023/05/04 12:14:15;;;;;;;1.45;0.80;;;;;;;;;;5003842;28;20525;-52
2023/05/04 12:16:52;;;;;;;6.03;1.20;;;;;;;;;;5016797;28;20155;-50
2023/05/04 12:19:27;;;;;;;3.05;0.77;;;;;;;;;;5016058;28;20567;-48
2023/05/04 12:21:57;;;;;;;2.25;1.00;;;;;;;;;;5012260;28;20053;-48
2023/05/04 12:24:31;;;;;;;3.08;1.00;;;;;;;;;;5013567;28;20526;-52
2023/05/04 12:27:05;;;;;;;2.55;1.38;;;;;;;;;;5016364;28;20085;-51
2023/05/04 12:29:46;;;;;;;1.60;0.90;;;;;;;;;;5018101;28;20104;-58
2023/05/04 12:32:20;;;;;;;3.13;0.90;;;;;;;;;;5017928;28;20140;-52
2023/05/04 12:34:47;;;;;;;;;;;;;;;;;;5017938;28;20061;-56
2023/05/04 12:37:21;;;;;;;2.17;0.77;;;;;;;;;;5018610;28;20004;-54
2023/05/04 12:39:51;;;;;;;0.70;0.68;;;;;;;;;;5017720;28;20053;-62
2023/05/04 12:42:18;;;;;;;2.65;1.05;;;;;;;;;;5017115;28;20050;-56
2023/05/04 12:44:52;;;;;;;2.30;1.08;;;;;;;;;;5018397;28;20048;-55
2023/05/04 12:47:22;;;;;;;;;;;;;;;;;;5019392;28;20241;-54
2023/05/04 12:49:56;;;;;;;4.38;0.77;;;;;;;;;;5017817;28;20297;-55
2023/05/04 12:52:23;;;;;;;2.53;1.10;;;;;;;;;;5018988;28;20050;-53
2023/05/04 12:54:50;;;;;;;0.85;0.70;;;;;;;;;;5016458;28;20085;-53
2023/05/04 12:57:24;;;;;;;1.73;1.13;;;;;;;;;;5017121;28;20136;-50
2023/05/04 12:59:51;;;;;;;1.52;0.90;;;;;;;;;;5018347;28;20137;-53
2023/05/04 13:02:25;;;;;;;3.00;1.00;;;;;;;;;;5015700;28;20053;-54
2023/05/04 13:04:52;;;;;;;1.33;0.73;;;;;;;;;;5016055;28;20049;-55
2023/05/04 13:07:20;;;;;;;1.48;0.80;;;;;;;;;;5017469;28;20501;-63
2023/05/04 13:09:54;;;;;;;1.20;0.85;;;;;;;;;;5015774;28;20060;-55
2023/05/04 13:12:21;;;;;;;1.00;0.77;;;;;;;;;;5014308;28;20050;-55
2023/05/04 13:14:56;;;;;;;0.90;0.70;;;;;;;;;;5016536;28;20048;-57
2023/05/04 13:17:23;;;;;;;1.55;0.80;;;;;;;;;;5016732;28;20049;-53
2023/05/04 13:19:51;;;;;;;1.63;0.93;;;;;;;;;;5014812;28;20165;-57
2023/05/04 13:22:25;;;;;;;1.33;0.80;;;;;;;;;;5003903;28;20077;-55
2023/05/04 13:24:53;;;;;;;1.63;0.90;;;;;;;;;;5015675;28;20065;-60
2023/05/04 13:27:34;;;;;;;1.45;0.80;;;;;;;;;;5017203;28;20141;-62
2023/05/04 13:30:09;;;;;;;0.98;0.68;;;;;;;;;;5020016;28;20562;-62
2023/05/04 13:32:43;;;;;;;1.13;0.80;;;;;;;;;;5021158;28;20052;-62
2023/05/04 13:35:17;;;;;;;1.10;0.80;;;;;;;;;;5020311;28;20052;-49
2023/05/04 13:37:51;;;;;;;1.63;0.85;;;;;;;;;;5017317;28;20057;-55
2023/05/04 13:40:25;;;;;;;1.63;0.60;;;;;;;;;;5020602;28;20460;-56
2023/05/04 13:42:59;;;;;;;1.33;0.70;;;;;;;;;;5021239;28;20068;-58
2023/05/04 13:45:33;;;;;;;2.78;1.02;;;;;;;;;;5018402;28;20127;-57
2023/05/04 13:48:07;;;;;;;1.08;0.70;;;;;;;;;;5004929;28;20156;-59
2023/05/04 13:50:34;;;;;;;1.58;0.50;;;;;;;;;;5021390;28;20439;-58
2023/05/04 13:53:01;;;;;;;1.42;0.82;;;;;;;;;;5013525;28;20070;-53
2023/05/04 13:55:35;;;;;;;0.80;0.70;;;;;;;;;;5017063;28;20061;-62
2023/05/04 13:58:02;;;;;;;2.28;0.73;;;;;;;;;;5015981;28;20050;-62
2023/05/04 14:00:36;;;;;;;1.08;0.98;;;;;;;;;;5020022;28;20509;-62
2023/05/04 14:03:04;;;;;;;;;;;;;;;;;;5017567;28;20132;-61
2023/05/04 14:05:31;;;;;;;1.67;1.10;;;;;;;;;;5012154;28;20035;-57
2023/05/04 14:08:05;;;;;;;0.70;0.60;;;;;;;;;;5017324;28;20068;-61
2023/05/04 14:10:32;;;;;;;1.73;1.02;;;;;;;;;;5009392;28;20476;-61
2023/05/04 14:13:06;;;;;;;0.70;0.65;;;;;;;;;;5019521;28;20304;-62
2023/05/04 14:15:33;;;;;;;2.83;0.82;;;;;;;;;;5016738;28;20050;-62
2023/05/04 14:18:00;;;;;;;3.40;0.80;;;;;;;;;;5023028;28;20053;-62
2023/05/04 14:20:34;;;;;;;3.17;0.70;;;;;;;;;;5023541;28;20049;-61
2023/05/04 14:23:01;;;;;;;2.28;0.82;;;;;;;;;;5020500;28;20067;-62
2023/05/04 14:25:35;;;;;;;1.00;0.60;;;;;;;;;;5022261;28;20085;-50
2023/05/04 14:28:09;;;;;;;0.65;0.65;;;;;;;;;;5015659;28;20057;-49
2023/05/04 14:30:50;;;;;;;1.20;0.60;;;;;;;;;;5019924;28;20049;-55
2023/05/04 14:33:17;;;;;;;1.02;0.75;;;;;;;;;;5019227;28;20049;-53
2023/05/04 14:35:51;;;;;;;2.15;0.80;;;;;;;;;;5022002;28;20183;-53
2023/05/04 14:38:18;;;;;;;2.05;0.95;;;;;;;;;;5020500;28;20072;-53
2023/05/04 14:40:54;;;;;;;0.77;0.77;;;;;;;;;;5016885;28;20140;-50
2023/05/04 14:43:28;;;;;;;0.43;0.43;;;;;;;;;;5019302;28;20075;-62
2023/05/04 14:45:55;;;;;;;1.65;0.98;;;;;;;;;;5018487;28;20077;-49
2023/05/04 14:48:29;;;;;;;0.63;0.57;;;;;;;;;;5022295;28;20050;-52
2023/05/04 14:50:56;;;;;;;1.27;0.80;;;;;;;;;;5010498;28;20124;-51
2023/05/04 14:53:23;;;;;;;0.80;0.70;;;;;;;;;;5009799;28;20085;-47
2023/05/04 14:55:57;;;;;;;1.40;0.60;;;;;;;;;;5015669;28;20064;-46
2023/05/04 14:58:24;;;;;;;1.27;0.95;;;;;;;;;;5005632;28;20131;-49
2023/05/04 15:00:58;;;;;;;2.35;0.68;;;;;;;;;;5012743;28;20041;-57
2023/05/04 15:03:25;;;;;;;0.95;0.77;;;;;;;;;;5021595;28;20054;-62
2023/05/04 15:05:52;;;;;;;1.60;0.77;;;;;;;;;;5022354;28;20050;-62
2023/05/04 15:08:26;;;;;;;2.08;0.60;;;;;;;;;;5020838;28;20068;-62
2023/05/04 15:10:57;;;;;;;1.58;0.90;;;;;;;;;;5019940;28;20048;-61
2023/05/04 15:13:31;;;;;;;1.25;0.60;;;;;;;;;;5002793;28;20138;-62
2023/05/04 15:15:58;;;;;;;0.60;0.60;;;;;;;;;;5013454;28;20455;-62